HOURLY OBS INDEX

022

Yorke Peninsula and Kangaroo Island

CAPE BORDA

Site: 022823
Alt: 158.0m
95km W of KINGSCOTE (KANGAROO ISLAND)


  Time     Wind        Temp  DP   Baro     Rain since   Rain past  Vis(m), Cloud(base in m), Weather
  local        km/h                         9am  last   hr   10m    
Mon 20:30   SE 26/ 37  14.9 10.8  1018.9    0.0   0.0   0.0   0.0   ----- 
Mon 20:30   SE 26/ 37  14.9 10.8  1018.9    0.0   0.0  ----   0.0   ----- 
Mon 21:00   SE 26/ 41  14.2 10.8  1018.6    0.0   0.0   0.0   0.0   ----- 
Mon 21:30  ESE 32/ 41  13.9 10.9  1018.3    0.0   0.0   0.0   0.0   ----- 
Mon 22:00  ESE 32/ 45  13.6 11.2  1018.3    0.0   0.0   0.0   0.0   ----- 
Mon 22:26  ESE 33/ 56  13.6 11.2  1018.2    0.0   0.0  ----   0.0   ----- 
Mon 22:30  ESE 35/ 56  13.6 11.2  1018.2    0.0   0.0   0.0   0.0   ----- 
Mon 23:00  ESE 33/ 46  13.5 11.2  1018.2    0.0   0.0   0.0   0.0   ----- 
Mon 23:30  ESE 32/ 45  13.3 11.2  1017.9    0.0   0.0   0.0   0.0   ----- 
Tue 00:00  ESE 33/ 46  13.4 11.3  1017.7    0.0   0.0   0.0   0.0   ----- 
Tue 00:30  ESE 32/ 43  13.1 11.4  1017.5    0.0   0.0   0.0   0.0   ----- 
Tue 01:00  ESE 28/ 37  12.9 11.4  1017.2    0.0   0.0   0.0   0.0   ----- 
Tue 01:30  ESE 30/ 39  12.9 11.2  1016.9    0.0   0.0   0.0   0.0   ----- 
Tue 01:30  ESE 30/ 39  12.9 11.2  1016.9    0.0   0.0  ----   0.0   ----- 

CAPE WILLOUGHBY

Site: 022803
Alt: 55.0m
49km ESE of KINGSCOTE (KANGAROO ISLAND)


  Time     Wind        Temp  DP   Baro     Rain since   Rain past  Vis(m), Cloud(base in m), Weather
  local        km/h                         9am  last   hr   10m    
Mon 20:30  SSE 33/ 43  16.0 12.9  1019.3    0.0   0.0   0.0   0.0   ----- 
Mon 20:30  SSE 33/ 43  16.0 12.9  1019.3    0.0   0.0  ----   0.0   ----- 
Mon 21:00  SSE 30/ 39  16.0 13.3  1019.4    0.0   0.0   0.0   0.0   ----- 
Mon 21:30  SSE 33/ 43  15.9 12.8  1019.1    0.0   0.0   0.0   0.0   ----- 
Mon 22:00  SSE 30/ 41  15.7 12.8  1019.1    0.0   0.0   0.0   0.0   ----- 
Mon 22:30   SE 32/ 41  15.8 12.9  1019.2    0.0   0.0   0.0   0.0   ----- 
Mon 23:00   SE 33/ 41  15.8 12.9  1019.1    0.0   0.0   0.0   0.0   ----- 
Mon 23:30   SE 32/ 37  15.5 12.4  1018.8    0.0   0.0   0.0   0.0   ----- 
Tue 00:00   SE 26/ 32  15.6 12.9  1018.6    0.0   0.0   0.0   0.0   ----- 
Tue 00:30   SE 28/ 35  15.6 12.9  1018.3    0.0   0.0   0.0   0.0   ----- 
Tue 01:00   SE 28/ 33  15.5 12.6  1018.0    0.0   0.0   0.0   0.0   ----- 
Tue 01:30   SE 26/ 32  15.5 12.6  1017.9    0.0   0.0   0.0   0.0   ----- 
Tue 01:30   SE 26/ 32  15.5 12.6  1017.9    0.0   0.0  ----   0.0   ----- 

EDITHBURGH

Site: 022046
Alt: 6.0m
61km N of KINGSCOTE (KANGAROO ISLAND)


  Time     Wind        Temp  DP   Baro     Rain since   Rain past  Vis(m), Cloud(base in m), Weather
  local        km/h                         9am  last   hr   10m    
Mon 20:30  SSE 32/ 41  16.8 13.4  1018.1    0.0   0.0   0.0   0.0   ----- 
Mon 20:30  SSE 32/ 41  16.8 13.4  1018.1    0.0   0.0  ----   0.0   ----- 
Mon 21:00  SSE 32/ 43  16.7 13.5  1018.2    0.0   0.0   0.0   0.0   ----- 
Mon 21:30  SSE 33/ 43  16.5 13.3  1018.0    0.0   0.0   0.0   0.0   ----- 
Mon 22:00  SSE 32/ 41  16.5 13.5  1017.8    0.0   0.0   0.0   0.0   ----- 
Mon 22:30  SSE 30/ 39  16.5 13.1  1017.8    0.0   0.0   0.0   0.0   ----- 
Mon 23:00  SSE 28/ 37  16.6 12.6  1017.8    0.0   0.0   0.0   0.0   ----- 
Mon 23:30  SSE 22/ 28  16.4 13.0  1017.5    0.0   0.0   0.0   0.0   ----- 
Tue 00:00  SSE 17/ 22  16.3 13.1  1017.3    0.0   0.0   0.0   0.0   ----- 
Tue 00:30  SSE 17/ 22  16.2 12.4  1017.2    0.0   0.0   0.0   0.0   ----- 
Tue 01:00  SSE 19/ 24  16.4 13.0  1016.6    0.0   0.0   0.0   0.0   ----- 
Tue 01:30  SSE 20/ 26  16.7 12.1  1016.0    0.0   0.0   0.0   0.0   ----- 
Tue 01:30  SSE 20/ 26  16.7 12.1  1016.0    0.0   0.0  ----   0.0   ----- 

KADINA AWS

Site: 022050
Alt: 41.1m
45km N of MAITLAND (YORKE PENINSULA)


  Time     Wind        Temp  DP   Baro     Rain since   Rain past  Vis(m), Cloud(base in m), Weather
  local        km/h                         9am  last   hr   10m    
Mon 20:30   SE 32/ 45  21.1  9.0  1015.8    0.0   0.0   0.0   0.0   ----- 
Mon 20:30   SE 32/ 45  21.1  9.0  1015.8    0.0   0.0  ----   0.0   ----- 
Mon 21:00   SE 33/ 43  19.9  9.5  1015.6    0.0   0.0   0.0   0.0   ----- 
Mon 21:30   SE 32/ 45  19.0 10.0  1015.6    0.0   0.0   0.0   0.0   ----- 
Mon 22:00   SE 32/ 41  18.4 10.8  1015.8    0.0   0.0   0.0   0.0   ----- 
Mon 22:30   SE 28/ 35  17.6 11.4  1016.0    0.0   0.0   0.0   0.0   ----- 
Mon 23:00   SE 30/ 37  17.1 11.8  1015.6    0.0   0.0   0.0   0.0   ----- 
Mon 23:30   SE 32/ 39  16.9 12.6  1015.2    0.0   0.0   0.0   0.0   ----- 
Tue 00:00   SE 28/ 35  16.7 12.7  1015.2    0.0   0.0   0.0   0.0   ----- 
Tue 00:30   SE 32/ 37  16.6 12.6  1014.9    0.0   0.0   0.0   0.0   ----- 
Tue 01:00   SE 28/ 33  16.4 12.4  1014.8    0.0   0.0   0.0   0.0   ----- 
Tue 01:30   SE 28/ 35  16.2 12.2  1014.5    0.0   0.0   0.0   0.0   ----- 
Tue 01:30   SE 28/ 35  16.2 12.2  1014.5    0.0   0.0  ----   0.0   ----- 

KINGSCOTE AERO

Site: 022841
Alt: 6.2m
12km WSW of KINGSCOTE (KANGAROO ISLAND)


  Time     Wind        Temp  DP   Baro     Rain since   Rain past  Vis(m), Cloud(base in m), Weather
  local        km/h                         9am  last   hr   10m    
Mon 20:30  SSE 22/ 30  16.0 12.0  1019.5    0.0   0.0   0.0   0.0   10000 
Mon 20:30  SSE 22/ 30  16.0 12.0  1019.5    0.0   0.0  ----   0.0   10000 
Mon 21:00  SSE 19/ 28  15.5 12.3  1019.4    0.0   0.0   0.0   0.0   10000 
Mon 21:30  SSE 19/ 24  15.3 12.2  1019.2    0.0   0.0   0.0   0.0   10000 
Mon 22:00  SSE 17/ 22  15.2 12.3  1019.3    0.0   0.0   0.0   0.0   10000 
Mon 22:30  SSE 13/ 17  14.8 12.1  1019.2    0.0   0.0   0.0   0.0   ----- 
Mon 23:00  SSE 13/ 15  14.7 12.2  1019.2    0.0   0.0   0.0   0.0   ----- 
Mon 23:30  SSE 13/ 17  14.5 11.8  1018.8    0.0   0.0   0.0   0.0   ----- 
Tue 00:00   SE 15/ 20  14.6 12.1  1018.5    0.0   0.0   0.0   0.0   ----- 
Tue 00:30  SSE 15/ 19  14.4 12.3  1018.3    0.0   0.0   0.0   0.0   ----- 
Tue 01:00  SSE 13/ 17  14.1 12.1  1018.2    0.0   0.0   0.0   0.0   ----- 
Tue 01:30  SSE 11/ 15  13.8 12.0  1017.8    0.0   0.0   0.0   0.0   ----- 
Tue 01:30  SSE 11/ 15  13.8 12.0  1017.8    0.0   0.0  ----   0.0   ----- 

MINLATON AERO

Site: 022031
Alt: 32.0m
44km SSW of MAITLAND (YORKE PENINSULA)


  Time     Wind        Temp  DP   Baro     Rain since   Rain past  Vis(m), Cloud(base in m), Weather
  local        km/h                         9am  last   hr   10m    
Mon 20:30  SSE 24/ 35  16.8 11.5  1017.4    0.0   0.0   0.0   0.0   ----- 
Mon 20:30  SSE 24/ 35  16.8 11.5  1017.4    0.0   0.0  ----   0.0   ----- 
Mon 21:00  SSE 24/ 32  15.9 12.3  1017.3    0.0   0.0   0.0   0.0   ----- 
Mon 21:30  SSE 28/ 35  15.5 12.4  1017.2    0.0   0.0   0.0   0.0   ----- 
Mon 22:00   SE 26/ 33  15.3 12.6  1017.5    0.0   0.0   0.0   0.0   ----- 
Mon 22:30   SE 26/ 32  15.1 12.6  1017.3    0.0   0.0   0.0   0.0   ----- 
Mon 23:00   SE 28/ 39  15.0 12.7  1016.8    0.0   0.0   0.0   0.0   ----- 
Mon 23:30   SE 28/ 35  14.9 12.6  1016.7    0.0   0.0   0.0   0.0   ----- 
Tue 00:00   SE 22/ 30  14.5 12.0  1016.7    0.0   0.0   0.0   0.0   ----- 
Tue 00:30   SE 26/ 32  14.5 12.0  1016.0    0.0   0.0   0.0   0.0   ----- 
Tue 01:00   SE 22/ 30  14.4 11.9  1015.8    0.0   0.0   0.0   0.0   ----- 
Tue 01:30   SE 24/ 30  14.3 11.8  1015.5    0.0   0.0   0.0   0.0   ----- 
Tue 01:30   SE 24/ 30  14.3 11.8  1015.5    0.0   0.0  ----   0.0   ----- 

MOONTA (WARBURTO POINT)

Site: 022053
Alt: 1.0m
43km NNW of MAITLAND (YORKE PENINSULA)


  Time     Wind        Temp  DP   Baro     Rain since   Rain past  Vis(m), Cloud(base in m), Weather
  local        km/h                         9am  last   hr   10m    
Mon 20:30  SSE 28/ 35 --------  ------   ----  ----  ----  ----   ----- 
Mon 20:30  SSE 28/ 35 --------  ------   ----  ----  ----  ----   ----- 
Mon 21:00  SSE 32/ 41 --------  ------   ----  ----  ----  ----   ----- 
Mon 21:30  SSE 30/ 35 --------  ------   ----  ----  ----  ----   ----- 
Mon 22:00  SSE 28/ 35 --------  ------   ----  ----  ----  ----   ----- 
Mon 22:30    S 28/ 33 --------  ------   ----  ----  ----  ----   ----- 
Mon 23:00  SSE 28/ 33 --------  ------   ----  ----  ----  ----   ----- 
Mon 23:30  SSE 26/ 30 --------  ------   ----  ----  ----  ----   ----- 
Tue 00:00  SSE 24/ 30 --------  ------   ----  ----  ----  ----   ----- 
Tue 00:30  SSE 24/ 33 --------  ------   ----  ----  ----  ----   ----- 
Tue 01:00  SSE 24/ 28 --------  ------   ----  ----  ----  ----   ----- 
Tue 01:30  SSE 22/ 30 --------  ------   ----  ----  ----  ----   ----- 
Tue 01:30  SSE 22/ 30 --------  ------   ----  ----  ----  ----   ----- 

PARNDANA CFS AWS

Site: 022843
Alt: 165.0m
38km WSW of KINGSCOTE (KANGAROO ISLAND)


  Time     Wind        Temp  DP   Baro     Rain since   Rain past  Vis(m), Cloud(base in m), Weather
  local        km/h                         9am  last   hr   10m    
Mon 20:30  SSE 17/ 22  14.2 11.0  ------    0.0   0.0   0.0   0.0   ----- 
Mon 20:30  SSE 17/ 22  14.2 11.0  ------    0.0   0.0  ----   0.0   ----- 
Mon 21:00   SE 17/ 24  13.5 10.9  ------    0.0   0.0   0.0   0.0   ----- 
Mon 21:30  SSE 17/ 20  13.0 11.1  ------    0.0   0.0   0.0   0.0   ----- 
Mon 22:00  SSE 15/ 19  12.2 10.8  ------    0.0   0.0   0.0   0.0   ----- 
Mon 22:30  SSE 11/ 13  11.7 10.4  ------    0.0   0.0   0.0   0.0   ----- 
Mon 23:00  SSE 13/ 15  11.2 10.1  ------    0.0   0.0   0.0   0.0   ----- 
Mon 23:30  SSE 11/ 13  10.7  9.8  ------    0.0   0.0   0.0   0.0   ----- 
Tue 00:00  SSE 13/ 17  11.2 10.4  ------    0.0   0.0   0.0   0.0   ----- 
Tue 00:30  SSE 13/ 15  10.8 10.2  ------    0.0   0.0   0.0   0.0   ----- 
Tue 01:00  SSE 13/ 15  11.2 10.6  ------    0.0   0.0   0.0   0.0   ----- 
Tue 01:30  SSE 13/ 19  11.3 10.8  ------    0.0   0.0   0.0   0.0   ----- 
Tue 01:30  SSE 13/ 19  11.3 10.8  ------    0.0   0.0  ----   0.0   ----- 

STENHOUSE BAY

Site: 022049
Alt: 42.0m
76km WNW of KINGSCOTE (KANGAROO ISLAND)


  Time     Wind        Temp  DP   Baro     Rain since   Rain past  Vis(m), Cloud(base in m), Weather
  local        km/h                         9am  last   hr   10m    
Mon 20:30  ESE 32/ 41  17.1 10.7  1018.2    0.0   0.0   0.0   0.0   ----- 
Mon 20:30  ESE 32/ 41  17.1 10.7  1018.2    0.0   0.0  ----   0.0   ----- 
Mon 21:00  ESE 30/ 37  16.9 11.2  1018.4    0.0   0.0   0.0   0.0   ----- 
Mon 21:30  ESE 30/ 35  16.4 10.7  1018.3    0.0   0.0   0.0   0.0   ----- 
Mon 22:00  ESE 30/ 37  16.1 11.1  1018.3    0.0   0.0   0.0   0.0   ----- 
Mon 22:30  ESE 30/ 35  16.0 11.6  1018.4    0.0   0.0   0.0   0.0   ----- 
Mon 23:00  ESE 28/ 35  15.9 12.3  1018.1    0.0   0.0   0.0   0.0   ----- 
Mon 23:30  ESE 28/ 37  15.8 12.0  1017.7    0.0   0.0   0.0   0.0   ----- 
Tue 00:00  ESE 30/ 37  15.6 11.4  1017.8    0.0   0.0   0.0   0.0   ----- 
Tue 00:30  ESE 32/ 39  15.7 12.1  1017.5    0.0   0.0   0.0   0.0   ----- 
Tue 01:00  ESE 35/ 45  15.8 11.8  1016.9    0.0   0.0   0.0   0.0   ----- 
Tue 01:30  ESE 35/ 45  15.6 11.6  1016.4    0.0   0.0   0.0   0.0   ----- 
Tue 01:30  ESE 35/ 45  15.6 11.6  1016.4    0.0   0.0  ----   0.0   -----